Time;durP1;ratioP1;P1;durP2;ratioP2;P2;SDS_P1;SDS_P2;PMS_P1;PMS_P2;Temp;Humidity;BMP_temperature;BMP_pressure;BME280_temperature;BME280_humidity;BME280_pressure;Samples;Min_cycle;Max_cycle;Signal;HPM_P1;HPM_P2
2022/06/24 00:02:23;;;;;;;6.10;3.70;;;25.20;99.90;;;;;;5078420;28;20542;-81
2022/06/24 00:04:55;;;;;;;6.43;3.87;;;25.20;99.90;;;;;;5078475;28;20924;-81
2022/06/24 00:07:22;;;;;;;4.97;3.60;;;25.30;99.90;;;;;;5077495;28;20455;-80
2022/06/24 00:09:50;;;;;;;6.17;4.30;;;25.20;99.90;;;;;;5078446;28;20538;-80
2022/06/24 00:12:20;;;;;;;4.23;3.83;;;25.20;99.90;;;;;;5077411;28;20458;-82
2022/06/24 00:14:58;;;;;;;4.30;3.90;;;25.20;99.90;;;;;;5078036;28;20447;-80
2022/06/24 00:17:28;;;;;;;5.30;3.53;;;25.30;99.90;;;;;;5061082;28;20449;-80
2022/06/24 00:19:56;;;;;;;5.93;4.07;;;25.20;99.90;;;;;;5076832;28;20569;-81
2022/06/24 00:22:24;;;;;;;4.50;3.77;;;25.20;99.90;;;;;;5078069;28;20458;-80
2022/06/24 00:25:07;;;;;;;4.00;3.53;;;25.20;99.90;;;;;;5093582;22;20486;-82
2022/06/24 00:27:36;;;;;;;6.47;4.50;;;25.10;99.90;;;;;;5075933;28;20450;-83
2022/06/24 00:30:09;;;;;;;7.10;4.30;;;25.00;99.90;;;;;;5076124;28;20479;-83
2022/06/24 00:32:36;;;;;;;4.80;4.30;;;25.00;99.90;;;;;;5077421;28;21017;-83
2022/06/24 00:35:05;;;;;;;6.17;4.43;;;25.00;99.90;;;;;;5073806;28;20463;-83
2022/06/24 00:37:34;;;;;;;4.83;4.33;;;25.00;99.90;;;;;;5071960;28;20431;-83
2022/06/24 00:40:22;;;;;;;5.10;4.13;;;25.00;99.90;;;;;;5077642;28;20447;-83
2022/06/24 00:42:50;;;;;;;5.37;4.57;;;25.00;99.90;;;;;;5076201;28;20447;-83
2022/06/24 00:45:25;;;;;;;6.43;4.50;;;25.00;99.90;;;;;;5065097;28;20559;-84
2022/06/24 00:47:52;;;;;;;6.60;4.53;;;24.90;99.90;;;;;;5084647;28;20447;-82
2022/06/24 00:50:23;;;;;;;6.20;4.20;;;24.90;99.90;;;;;;5089613;28;20481;-82
2022/06/24 00:52:52;;;;;;;4.70;3.90;;;24.90;99.90;;;;;;5073911;28;20448;-82
2022/06/24 00:55:20;;;;;;;6.20;5.17;;;24.90;99.90;;;;;;5074303;28;20523;-82
2022/06/24 00:57:47;;;;;;;7.27;4.50;;;24.90;99.90;;;;;;5084067;28;20539;-83
2022/06/24 01:00:17;;;;;;;5.73;4.40;;;24.90;99.90;;;;;;5061629;28;20456;-83
2022/06/24 01:02:44;;;;;;;9.13;3.90;;;24.80;99.90;;;;;;5062474;28;20506;-84
2022/06/24 01:05:12;;;;;;;4.70;4.00;;;24.70;99.90;;;;;;5073790;28;20491;-81
2022/06/24 01:07:39;;;;;;;4.63;3.53;;;24.70;99.90;;;;;;5066814;28;20451;-81
2022/06/24 01:10:07;;;;;;;7.20;3.63;;;24.70;99.90;;;;;;5055452;28;20456;-81
2022/06/24 01:12:35;;;;;;;6.23;4.30;;;24.70;99.90;;;;;;5062788;28;20506;-83
2022/06/24 01:15:02;;;;;;;8.20;3.90;;;24.60;99.90;;;;;;5059920;28;20553;-81
2022/06/24 01:17:31;;;;;;;6.87;4.27;;;24.60;99.90;;;;;;5059558;28;20513;-82
2022/06/24 01:19:58;;;;;;;8.50;4.03;;;24.60;99.90;;;;;;5058474;28;20467;-81
2022/06/24 01:22:27;;;;;;;8.33;4.37;;;24.50;99.90;;;;;;5065951;28;20483;-80
2022/06/24 01:24:55;;;;;;;8.10;4.90;;;24.40;99.90;;;;;;5065725;28;20490;-82
2022/06/24 01:27:22;;;;;;;9.27;5.47;;;24.40;99.90;;;;;;5056288;28;20452;-82
2022/06/24 01:29:50;;;;;;;10.43;5.10;;;24.30;99.90;;;;;;5073929;28;20455;-80
2022/06/24 01:32:17;;;;;;;10.13;5.87;;;24.10;99.90;;;;;;5074133;28;20446;-81
2022/06/24 01:34:44;;;;;;;9.83;5.00;;;24.00;99.90;;;;;;5058285;28;20538;-82
2022/06/24 01:37:11;;;;;;;11.27;5.37;;;23.80;99.90;;;;;;5065098;28;20535;-82
2022/06/24 01:39:39;;;;;;;11.27;5.13;;;23.80;99.90;;;;;;5074693;28;20485;-81
2022/06/24 01:42:07;;;;;;;6.07;4.10;;;23.70;99.90;;;;;;5075954;28;20874;-80
2022/06/24 01:44:35;;;;;;;13.67;6.27;;;23.60;99.90;;;;;;5061926;28;20573;-82
2022/06/24 01:47:02;;;;;;;6.90;4.90;;;23.50;99.90;;;;;;5067106;28;20509;-82
2022/06/24 01:49:29;;;;;;;8.10;5.43;;;23.50;99.90;;;;;;5058427;28;20955;-81
2022/06/24 01:51:59;;;;;;;9.83;4.60;;;23.40;99.90;;;;;;5070906;28;20501;-82
2022/06/24 01:54:26;;;;;;;13.93;5.50;;;23.30;99.90;;;;;;5075726;28;20866;-82
2022/06/24 01:56:55;;;;;;;9.07;5.47;;;23.30;99.90;;;;;;5071027;28;20452;-81
2022/06/24 01:59:22;;;;;;;8.53;5.27;;;23.30;99.90;;;;;;5084022;28;20462;-81
2022/06/24 02:01:49;;;;;;;7.73;4.90;;;23.20;99.90;;;;;;5088025;28;20477;-80
2022/06/24 02:04:16;;;;;;;9.27;5.30;;;23.20;99.90;;;;;;5081708;28;20479;-81
2022/06/24 02:06:43;;;;;;;12.97;5.00;;;23.20;99.90;;;;;;5058308;28;20481;-82
2022/06/24 02:09:10;;;;;;;10.37;5.30;;;23.20;99.90;;;;;;5069312;28;20459;-80
2022/06/24 02:14:24;;;;;;;7.67;5.33;;;23.10;99.90;;;;;;5068764;28;20463;-81
2022/06/24 02:16:52;;;;;;;16.67;5.70;;;23.10;99.90;;;;;;5076775;28;20502;-81
2022/06/24 02:19:20;;;;;;;9.53;4.30;;;23.00;99.90;;;;;;5057622;28;20546;-81
2022/06/24 02:21:47;;;;;;;10.60;5.10;;;23.00;99.90;;;;;;5057117;28;20479;-81
2022/06/24 02:24:15;;;;;;;5.00;3.83;;;23.10;99.90;;;;;;5056449;28;20475;-81
2022/06/24 02:26:43;;;;;;;7.90;5.23;;;23.10;99.90;;;;;;5065258;28;20484;-81
2022/06/24 02:29:10;;;;;;;9.93;6.30;;;23.00;99.90;;;;;;5074503;28;20455;-79
2022/06/24 02:31:38;;;;;;;9.30;5.33;;;23.10;99.90;;;;;;5057584;28;20495;-80
2022/06/24 02:34:05;;;;;;;10.77;5.50;;;23.00;99.90;;;;;;5056725;28;20467;-80
2022/06/24 02:36:32;;;;;;;7.23;5.70;;;23.00;99.90;;;;;;5060858;28;20526;-81
2022/06/24 02:38:59;;;;;;;10.23;5.80;;;22.90;99.90;;;;;;5061347;28;20546;-80
2022/06/24 02:41:26;;;;;;;10.07;6.00;;;22.90;99.90;;;;;;5060837;28;20547;-83
2022/06/24 02:43:53;;;;;;;6.87;4.93;;;22.90;99.90;;;;;;5057209;28;21038;-80
2022/06/24 02:46:20;;;;;;;11.37;5.47;;;22.90;99.90;;;;;;5070296;28;20596;-81
2022/06/24 02:48:48;;;;;;;7.80;5.60;;;22.90;99.90;;;;;;5059194;28;20456;-81
2022/06/24 02:51:18;;;;;;;9.30;5.20;;;23.00;99.90;;;;;;5062486;28;21055;-82
2022/06/24 02:53:45;;;;;;;8.50;5.10;;;22.90;99.90;;;;;;5065139;28;20909;-81
2022/06/24 02:56:14;;;;;;;8.17;5.33;;;23.00;99.90;;;;;;5064588;28;20455;-80
2022/06/24 02:58:42;;;;;;;7.57;4.80;;;22.90;99.90;;;;;;5060060;28;20498;-80
2022/06/24 03:01:10;;;;;;;13.47;4.93;;;23.00;99.90;;;;;;5056922;28;20455;-80
2022/06/24 03:03:37;;;;;;;8.10;4.97;;;23.00;99.90;;;;;;5059069;28;20498;-81
2022/06/24 03:06:06;;;;;;;7.30;4.70;;;23.00;99.90;;;;;;5058341;28;21031;-81
2022/06/24 03:08:33;;;;;;;10.03;5.70;;;23.10;99.90;;;;;;5062859;28;20447;-80
2022/06/24 03:11:03;;;;;;;10.83;4.63;;;22.90;99.90;;;;;;5057845;28;20447;-81
2022/06/24 03:13:30;;;;;;;7.30;4.60;;;22.90;99.90;;;;;;5057189;28;20476;-81
2022/06/24 03:15:57;;;;;;;8.70;4.67;;;23.00;99.90;;;;;;5070531;28;21043;-81
2022/06/24 03:18:25;;;;;;;8.70;4.90;;;23.00;99.90;;;;;;5075027;28;20505;-81
2022/06/24 03:20:52;;;;;;;8.97;5.30;;;23.00;99.90;;;;;;5075424;28;20459;-81
2022/06/24 03:23:21;;;;;;;8.93;5.10;;;23.00;99.90;;;;;;5056530;28;20506;-82
2022/06/24 03:25:48;;;;;;;6.10;4.40;;;23.00;99.90;;;;;;5071655;28;20644;-81
2022/06/24 03:28:14;;;;;;;8.33;5.23;;;23.00;99.90;;;;;;5076064;28;20447;-81
2022/06/24 03:30:42;;;;;;;9.70;5.77;;;23.00;99.90;;;;;;5062300;28;21031;-81
2022/06/24 03:33:09;;;;;;;9.47;5.57;;;22.90;99.90;;;;;;5057582;28;20577;-81
2022/06/24 03:35:36;;;;;;;6.77;5.37;;;22.80;99.90;;;;;;5075357;28;20451;-81
2022/06/24 03:38:03;;;;;;;8.63;4.80;;;22.80;99.90;;;;;;5066256;28;20448;-81
2022/06/24 03:40:31;;;;;;;6.47;5.37;;;22.80;99.90;;;;;;5069541;28;20546;-82
2022/06/24 03:42:58;;;;;;;7.90;5.13;;;22.80;99.90;;;;;;5076445;28;20482;-81
2022/06/24 03:45:25;;;;;;;7.20;4.93;;;22.80;99.90;;;;;;5066079;28;20522;-81
2022/06/24 03:47:52;;;;;;;9.10;6.00;;;22.80;99.90;;;;;;5076006;28;20459;-81
2022/06/24 03:50:19;;;;;;;8.10;6.00;;;22.80;99.90;;;;;;5071731;28;20455;-81
2022/06/24 03:52:46;;;;;;;8.97;5.73;;;22.80;99.90;;;;;;5063580;28;20528;-81
2022/06/24 03:55:13;;;;;;;11.40;6.83;;;22.80;99.90;;;;;;5067210;28;20500;-81
2022/06/24 03:57:41;;;;;;;11.67;7.20;;;22.80;99.90;;;;;;5069634;28;22405;-82
2022/06/24 04:00:09;;;;;;;8.57;6.27;;;22.70;99.90;;;;;;5074066;28;20447;-81
2022/06/24 04:02:36;;;;;;;7.50;6.00;;;22.60;99.90;;;;;;5060290;28;20964;-81
2022/06/24 04:05:04;;;;;;;11.07;6.83;;;22.60;99.90;;;;;;5061845;28;20482;-79
2022/06/24 04:07:30;;;;;;;9.20;7.13;;;22.50;99.90;;;;;;5059994;28;21030;-82
2022/06/24 04:10:00;;;;;;;8.73;5.60;;;22.40;99.90;;;;;;5079056;28;20545;-80
2022/06/24 04:12:32;;;;;;;8.83;7.07;;;22.40;99.90;;;;;;5070272;28;20527;-79
2022/06/24 04:15:17;;;;;;;8.33;5.97;;;22.20;99.90;;;;;;5072657;28;20495;-81
2022/06/24 04:17:45;;;;;;;6.70;5.10;;;22.30;99.90;;;;;;5057814;28;20514;-80
2022/06/24 04:20:14;;;;;;;6.67;5.70;;;22.30;99.90;;;;;;5063204;28;20551;-81
2022/06/24 04:22:41;;;;;;;8.77;5.87;;;22.30;99.90;;;;;;5077921;28;20447;-82
2022/06/24 04:25:10;;;;;;;8.63;5.20;;;22.20;99.90;;;;;;5075948;28;20917;-81
2022/06/24 04:27:37;;;;;;;7.57;5.20;;;22.10;99.90;;;;;;5068797;28;20880;-80
2022/06/24 04:30:08;;;;;;;6.90;5.23;;;22.20;99.90;;;;;;5075184;28;20842;-78
2022/06/24 04:32:35;;;;;;;5.80;4.37;;;22.10;99.90;;;;;;5069277;28;20490;-80
2022/06/24 04:35:02;;;;;;;10.50;5.50;;;22.10;99.90;;;;;;5077165;28;20511;-80
2022/06/24 04:37:29;;;;;;;8.87;4.77;;;22.10;99.90;;;;;;5067590;28;20456;-80
2022/06/24 04:39:58;;;;;;;6.50;4.70;;;22.10;99.90;;;;;;5073504;28;20461;-80
2022/06/24 04:42:24;;;;;;;7.33;5.60;;;22.10;99.90;;;;;;5063008;28;20451;-82
2022/06/24 04:44:51;;;;;;;8.43;4.63;;;22.10;99.90;;;;;;5075136;28;20500;-81
2022/06/24 04:47:20;;;;;;;13.20;6.30;;;22.10;99.90;;;;;;5068992;28;21093;-81
2022/06/24 04:49:47;;;;;;;7.93;5.73;;;22.00;99.90;;;;;;5060319;28;20886;-81
2022/06/24 04:52:15;;;;;;;9.60;4.77;;;21.90;99.90;;;;;;5066822;28;20474;-80
2022/06/24 04:54:42;;;;;;;7.10;5.83;;;22.00;99.90;;;;;;5068570;28;20506;-82
2022/06/24 04:57:09;;;;;;;9.33;6.90;;;22.10;99.90;;;;;;5088411;28;20432;-82
2022/06/24 04:59:36;;;;;;;7.90;7.00;;;22.10;99.90;;;;;;5082410;28;20463;-81
2022/06/24 05:02:03;;;;;;;11.77;7.90;;;22.00;99.90;;;;;;5071382;28;20446;-81
2022/06/24 05:04:31;;;;;;;10.80;7.67;;;22.00;99.90;;;;;;5086583;28;20499;-82
2022/06/24 05:06:58;;;;;;;9.30;7.97;;;22.10;99.90;;;;;;5085804;28;20515;-80
2022/06/24 05:09:25;;;;;;;9.63;8.20;;;22.00;99.90;;;;;;5079503;28;20462;-81
2022/06/24 05:11:52;;;;;;;10.50;8.90;;;22.00;99.90;;;;;;5070149;28;20447;-81
2022/06/24 05:14:18;;;;;;;9.27;8.40;;;22.00;99.90;;;;;;5070933;28;20474;-81
2022/06/24 05:16:46;;;;;;;9.67;8.77;;;22.00;99.90;;;;;;5084557;28;20495;-82
2022/06/24 05:19:13;;;;;;;10.53;8.27;;;22.00;99.90;;;;;;5086752;28;20473;-81
2022/06/24 05:21:41;;;;;;;11.03;10.00;;;22.00;99.90;;;;;;5075130;28;20477;-81
2022/06/24 05:24:09;;;;;;;10.07;9.17;;;21.80;99.90;;;;;;5082982;28;21017;-80
2022/06/24 05:26:36;;;;;;;10.60;9.60;;;21.90;99.90;;;;;;5078517;28;20513;-82
2022/06/24 05:29:03;;;;;;;10.60;9.60;;;21.90;99.90;;;;;;5068302;28;20515;-80
2022/06/24 05:31:33;;;;;;;12.03;10.67;;;21.90;99.90;;;;;;5063717;28;20459;-80
2022/06/24 05:34:00;;;;;;;10.43;9.40;;;22.00;99.90;;;;;;5068809;28;20467;-81
2022/06/24 05:36:30;;;;;;;12.40;9.30;;;21.90;99.90;;;;;;5070548;28;20463;-81
2022/06/24 05:38:58;;;;;;;10.10;9.13;;;22.00;99.90;;;;;;5087886;28;20459;-80
2022/06/24 05:41:25;;;;;;;10.40;9.30;;;21.90;99.90;;;;;;5077094;28;20452;-81
2022/06/24 05:43:57;;;;;;;10.13;8.90;;;21.90;99.90;;;;;;5089991;28;20514;-80
2022/06/24 05:46:23;;;;;;;12.50;9.17;;;22.00;99.90;;;;;;5087592;28;20496;-80
2022/06/24 05:48:50;;;;;;;9.87;8.90;;;22.00;99.90;;;;;;5092074;28;20464;-81
2022/06/24 05:51:18;;;;;;;10.53;9.60;;;22.00;99.90;;;;;;5082845;28;20459;-79
2022/06/24 05:56:43;;;;;;;11.87;9.13;;;22.10;99.90;;;;;;5011210;28;20941;-80
2022/06/24 05:59:10;;;;;;;11.07;10.10;;;22.10;99.90;;;;;;5050200;28;20454;-80
2022/06/24 06:01:37;;;;;;;12.10;9.90;;;22.10;99.90;;;;;;5069351;28;20452;-78
2022/06/24 06:04:21;;;;;;;10.77;9.70;;;22.00;99.90;;;;;;5065492;28;20831;-77
2022/06/24 06:06:49;;;;;;;12.30;9.83;;;22.00;99.90;;;;;;5068791;28;20840;-78
2022/06/24 06:09:16;;;;;;;11.33;10.30;;;22.10;99.90;;;;;;5079895;28;20451;-81
2022/06/24 06:11:46;;;;;;;11.07;10.00;;;22.00;99.90;;;;;;5069589;28;20451;-80
2022/06/24 06:14:13;;;;;;;13.53;10.60;;;22.10;99.90;;;;;;5076011;28;20468;-78
2022/06/24 06:16:58;;;;;;;14.90;10.70;;;22.10;99.90;;;;;;5079120;28;21006;-79
2022/06/24 06:19:25;;;;;;;12.23;10.60;;;22.00;99.90;;;;;;5072012;28;21030;-79
2022/06/24 06:22:02;;;;;;;13.77;11.23;;;22.00;99.90;;;;;;5075243;28;20984;-79
2022/06/24 06:24:32;;;;;;;14.33;12.90;;;22.00;99.90;;;;;;5090050;28;20466;-78
2022/06/24 06:27:01;;;;;;;15.27;13.87;;;22.00;99.90;;;;;;5083180;28;20479;-79
2022/06/24 06:29:31;;;;;;;14.90;13.40;;;21.80;99.90;;;;;;5086740;28;21046;-78
2022/06/24 06:31:58;;;;;;;14.97;12.03;;;21.90;99.90;;;;;;5078098;28;20461;-79
2022/06/24 06:34:25;;;;;;;12.30;11.00;;;22.00;99.90;;;;;;5087740;28;20478;-79
2022/06/24 06:36:51;;;;;;;13.97;10.90;;;22.00;99.90;;;;;;5089748;28;20474;-81
2022/06/24 06:39:18;;;;;;;13.53;9.20;;;22.10;99.90;;;;;;5069348;28;20496;-81
2022/06/24 06:41:48;;;;;;;8.30;6.50;;;22.00;99.90;;;;;;5070833;28;20475;-79
2022/06/24 06:44:17;;;;;;;7.87;5.30;;;22.10;99.90;;;;;;5073800;28;20452;-82
2022/06/24 06:46:47;;;;;;;5.27;4.23;;;22.20;99.90;;;;;;5079065;28;20518;-81
2022/06/24 06:49:14;;;;;;;6.43;3.97;;;22.20;99.90;;;;;;5074811;28;20549;-84
2022/06/24 06:51:41;;;;;;;5.13;3.30;;;22.40;99.90;;;;;;5077030;28;20456;-79
2022/06/24 06:54:08;;;;;;;4.87;3.20;;;22.50;99.90;;;;;;5078758;28;20478;-80
2022/06/24 06:56:35;;;;;;;5.60;2.93;;;22.60;99.90;;;;;;5075595;28;20460;-80
2022/06/24 06:59:05;;;;;;;6.13;2.83;;;22.70;99.90;;;;;;5075557;28;20470;-80
2022/06/24 07:01:33;;;;;;;3.50;2.80;;;22.90;99.90;;;;;;5074912;28;20505;-79
2022/06/24 07:04:00;;;;;;;4.27;2.40;;;23.00;99.90;;;;;;5075511;28;20490;-80
2022/06/24 07:06:27;;;;;;;5.80;2.80;;;23.10;99.90;;;;;;5075398;28;20478;-81
2022/06/24 07:08:54;;;;;;;5.50;2.57;;;23.20;99.90;;;;;;5077140;28;20486;-80
2022/06/24 07:11:21;;;;;;;3.00;2.40;;;23.20;99.90;;;;;;5077187;28;20453;-81
2022/06/24 07:13:47;;;;;;;5.30;2.20;;;23.40;99.90;;;;;;5075475;28;20506;-81
2022/06/24 07:16:14;;;;;;;4.27;2.17;;;23.50;99.90;;;;;;5078325;28;20466;-81
2022/06/24 07:18:42;;;;;;;3.07;1.77;;;23.40;99.90;;;;;;5078742;28;20507;-80
2022/06/24 07:21:12;;;;;;;4.23;2.13;;;23.50;99.90;;;;;;5076553;28;20468;-79
2022/06/24 07:23:44;;;;;;;3.47;2.10;;;23.50;99.90;;;;;;5076657;28;20476;-80
2022/06/24 07:26:11;;;;;;;8.90;2.40;;;23.60;99.90;;;;;;5078996;28;20525;-81
2022/06/24 07:28:38;;;;;;;7.40;2.73;;;23.60;99.90;;;;;;5079977;28;20470;-80
2022/06/24 07:31:14;;;;;;;3.57;1.97;;;23.70;99.90;;;;;;5077184;28;20472;-81
2022/06/24 07:33:42;;;;;;;4.20;1.70;;;23.80;99.90;;;;;;5078727;28;20460;-80
2022/06/24 07:36:09;;;;;;;7.57;1.90;;;23.90;99.90;;;;;;5083070;28;20474;-81
2022/06/24 07:38:36;;;;;;;2.30;1.53;;;23.90;99.90;;;;;;5081702;28;20462;-78
2022/06/24 07:41:03;;;;;;;4.80;3.30;;;23.90;99.90;;;;;;5081492;28;20490;-79
2022/06/24 07:43:30;;;;;;;3.23;2.20;;;23.90;99.90;;;;;;5074970;28;20659;-79
2022/06/24 07:45:57;;;;;;;2.97;2.23;;;23.80;99.90;;;;;;5072556;28;20491;-80
2022/06/24 07:48:24;;;;;;;3.50;2.00;;;23.90;99.90;;;;;;5073755;28;20443;-79
2022/06/24 07:50:52;;;;;;;3.70;2.13;;;23.80;99.90;;;;;;5075947;28;20478;-79
2022/06/24 07:53:19;;;;;;;3.70;1.93;;;23.90;99.90;;;;;;5082053;28;20467;-81
2022/06/24 07:58:31;;;;;;;4.17;1.83;;;23.90;99.90;;;;;;5077802;28;20418;-81
2022/06/24 08:00:57;;;;;;;3.90;1.93;;;23.80;99.90;;;;;;5099478;23;20499;-82
2022/06/24 08:03:24;;;;;;;3.20;2.20;;;23.90;99.90;;;;;;5076960;28;20470;-83
2022/06/24 08:05:52;;;;;;;5.07;2.27;;;23.80;99.90;;;;;;5075510;28;20494;-84
2022/06/24 08:08:19;;;;;;;5.33;2.00;;;23.80;99.90;;;;;;5081917;28;20554;-83
2022/06/24 08:10:47;;;;;;;4.83;2.43;;;23.70;99.90;;;;;;5078985;28;20489;-83
2022/06/24 08:13:14;;;;;;;4.53;2.40;;;23.50;99.90;;;;;;5080720;28;20461;-83
2022/06/24 08:15:41;;;;;;;4.80;2.57;;;23.20;99.90;;;;;;5063474;28;20535;-83
2022/06/24 08:18:08;;;;;;;5.50;3.37;;;23.00;99.90;;;;;;5060425;28;21002;-83
2022/06/24 08:20:35;;;;;;;3.40;2.73;;;22.90;99.90;;;;;;5075826;28;20554;-83
2022/06/24 08:23:03;;;;;;;4.27;2.90;;;22.80;99.90;;;;;;5078376;28;20519;-83
2022/06/24 08:25:30;;;;;;;4.00;3.03;;;22.70;99.90;;;;;;5070888;28;20477;-82
2022/06/24 08:27:57;;;;;;;5.33;2.67;;;22.60;99.90;;;;;;5067769;28;20574;-82
2022/06/24 08:30:24;;;;;;;3.93;2.10;;;22.40;99.90;;;;;;5076941;28;20510;-83
2022/06/24 08:32:51;;;;;;;3.90;2.07;;;22.30;99.90;;;;;;5059351;28;20478;-82
2022/06/24 08:35:18;;;;;;;2.93;1.60;;;22.20;99.90;;;;;;5058839;28;20879;-82
2022/06/24 08:37:45;;;;;;;2.30;1.50;;;22.20;99.90;;;;;;5077483;28;20859;-83
2022/06/24 08:40:15;;;;;;;2.80;1.10;;;22.20;99.90;;;;;;5077403;28;20475;-83
2022/06/24 08:42:45;;;;;;;4.20;1.93;;;22.20;99.90;;;;;;5079144;28;20439;-83
2022/06/24 08:45:13;;;;;;;3.47;1.53;;;22.20;99.90;;;;;;5063495;28;20491;-82
2022/06/24 08:47:41;;;;;;;2.70;1.60;;;22.20;99.90;;;;;;5078061;28;20545;-82
2022/06/24 08:50:08;;;;;;;3.50;2.40;;;22.30;99.90;;;;;;5082409;28;21013;-82
2022/06/24 08:52:36;;;;;;;3.67;2.00;;;22.20;99.90;;;;;;5080967;28;20530;-82
2022/06/24 08:55:05;;;;;;;3.00;1.90;;;22.10;99.90;;;;;;5077311;28;20541;-83
2022/06/24 08:57:33;;;;;;;5.70;2.13;;;22.10;99.90;;;;;;5074598;28;20482;-83
2022/06/24 09:00:00;;;;;;;3.37;2.10;;;22.20;99.90;;;;;;5056601;28;20547;-83
2022/06/24 09:02:27;;;;;;;3.97;2.83;;;22.40;99.90;;;;;;5056664;28;20892;-79
2022/06/24 09:04:59;;;;;;;3.10;2.17;;;22.40;99.90;;;;;;5056140;28;20519;-82
2022/06/24 09:07:27;;;;;;;3.73;2.53;;;22.50;99.90;;;;;;5056020;28;20515;-82
2022/06/24 09:09:58;;;;;;;3.43;2.37;;;22.50;99.90;;;;;;5063066;28;21049;-82
2022/06/24 09:12:28;;;;;;;5.47;2.40;;;22.50;99.90;;;;;;5076775;28;20447;-83
2022/06/24 09:15:03;;;;;;;3.10;1.93;;;22.40;99.90;;;;;;5077066;28;20467;-82
2022/06/24 09:17:32;;;;;;;2.30;2.00;;;22.40;99.90;;;;;;5077174;28;20474;-82
2022/06/24 09:20:07;;;;;;;3.90;2.27;;;22.30;99.90;;;;;;5069994;28;20494;-82
2022/06/24 09:22:34;;;;;;;4.70;2.20;;;22.20;99.90;;;;;;5057666;28;20892;-82
2022/06/24 09:25:01;;;;;;;4.40;2.53;;;22.10;99.90;;;;;;5057387;28;20472;-83
2022/06/24 09:27:28;;;;;;;4.03;2.30;;;22.10;99.90;;;;;;5057885;28;20496;-82
2022/06/24 09:29:56;;;;;;;3.23;2.40;;;22.10;99.90;;;;;;5066142;28;20479;-82
2022/06/24 09:32:23;;;;;;;2.90;2.23;;;22.00;99.90;;;;;;5077245;28;20497;-82
2022/06/24 09:35:05;;;;;;;4.93;3.17;;;22.00;99.90;;;;;;5074994;28;20440;-80
2022/06/24 09:37:40;;;;;;;6.00;3.50;;;21.90;99.90;;;;;;5063185;28;20480;-83
2022/06/24 09:40:18;;;;;;;4.50;4.00;;;21.80;99.90;;;;;;5055439;28;20519;-82
2022/06/24 09:42:53;;;;;;;5.40;4.60;;;21.70;99.90;;;;;;5063141;28;20490;-82
2022/06/24 09:45:22;;;;;;;6.53;4.97;;;21.70;99.90;;;;;;5055580;28;20521;-81
2022/06/24 09:47:50;;;;;;;5.40;4.20;;;21.60;99.90;;;;;;5055139;28;21090;-82
2022/06/24 09:50:18;;;;;;;6.40;5.03;;;21.50;99.90;;;;;;5055182;28;20510;-82
2022/06/24 09:52:45;;;;;;;6.70;4.37;;;21.50;99.90;;;;;;5063972;28;20462;-82
2022/06/24 09:55:13;;;;;;;5.20;4.70;;;21.40;99.90;;;;;;5067919;28;20979;-82
2022/06/24 09:57:40;;;;;;;7.50;5.57;;;21.40;99.90;;;;;;5063098;28;20520;-82
2022/06/24 10:02:58;;;;;;;6.83;5.17;;;21.30;99.90;;;;;;5064755;28;20526;-82
2022/06/24 10:05:32;;;;;;;9.13;6.33;;;21.30;99.90;;;;;;5075449;28;20979;-82
2022/06/24 10:08:01;;;;;;;10.67;6.40;;;21.40;99.90;;;;;;5067167;28;20554;-82
2022/06/24 10:10:29;;;;;;;6.97;6.27;;;21.50;99.90;;;;;;5067158;28;20478;-83
2022/06/24 10:13:04;;;;;;;8.33;6.23;;;21.60;99.90;;;;;;5082513;28;20501;-83
2022/06/24 10:15:31;;;;;;;8.57;6.93;;;21.70;99.90;;;;;;5074250;28;20446;-83
2022/06/24 10:18:01;;;;;;;8.30;7.30;;;21.70;99.90;;;;;;5074392;28;20506;-83
2022/06/24 10:20:28;;;;;;;7.83;6.10;;;21.90;99.90;;;;;;5069735;28;20484;-82
2022/06/24 10:22:57;;;;;;;7.60;5.97;;;22.20;99.90;;;;;;5075507;28;20538;-82
2022/06/24 10:25:52;;;;;;;9.20;6.17;;;22.50;99.90;;;;;;5078107;28;20447;-83
2022/06/24 10:28:19;;;;;;;10.10;7.33;;;22.70;99.90;;;;;;5079765;28;20565;-84
2022/06/24 10:30:57;;;;;;;8.47;6.63;;;23.00;99.90;;;;;;5064608;28;20553;-82
2022/06/24 10:33:28;;;;;;;6.77;6.07;;;23.10;99.90;;;;;;5078150;28;20489;-83
2022/06/24 10:35:59;;;;;;;7.70;6.90;;;23.30;99.90;;;;;;5073505;28;20465;-82
2022/06/24 10:38:28;;;;;;;8.63;7.13;;;23.40;99.90;;;;;;5063403;28;20539;-83
2022/06/24 10:40:57;;;;;;;5.87;5.27;;;23.70;99.90;;;;;;5061208;28;20558;-83
2022/06/24 10:43:37;;;;;;;8.00;5.10;;;24.00;99.90;;;;;;5076956;28;20481;-83
2022/06/24 10:46:19;;;;;;;7.93;5.13;;;24.50;99.90;;;;;;5065317;28;20470;-82
2022/06/24 10:49:01;;;;;;;8.73;4.50;;;24.60;99.90;;;;;;5061113;28;20515;-82
2022/06/24 10:51:32;;;;;;;6.30;4.40;;;24.80;99.90;;;;;;5064242;28;20467;-82
2022/06/24 10:54:15;;;;;;;7.90;5.53;;;24.90;99.90;;;;;;5079557;28;20459;-83
2022/06/24 10:56:44;;;;;;;6.20;4.90;;;25.10;99.90;;;;;;5069779;28;20459;-81
2022/06/24 10:59:13;;;;;;;5.30;4.57;;;25.20;99.90;;;;;;5066488;28;20529;-84
2022/06/24 11:07:13;;;;;;;6.40;3.90;;;26.50;99.90;;;;;;5021583;22;20502;-80
2022/06/24 11:09:40;;;;;;;5.30;3.37;;;27.00;99.90;;;;;;5007633;28;20498;-81
2022/06/24 11:12:28;;;;;;;4.90;3.40;;;27.20;99.90;;;;;;5012794;28;20447;-82
2022/06/24 11:14:55;;;;;;;6.80;4.60;;;26.70;99.90;;;;;;5010912;28;20481;-81
2022/06/24 11:17:25;;;;;;;5.10;3.93;;;26.40;99.90;;;;;;5011796;28;20477;-81
2022/06/24 11:19:52;;;;;;;6.57;3.50;;;26.20;99.90;;;;;;5014003;28;20454;-80
2022/06/24 11:22:21;;;;;;;6.43;3.20;;;26.10;99.90;;;;;;5012304;28;20447;-80
2022/06/24 11:24:51;;;;;;;5.07;3.17;;;26.60;99.90;;;;;;5012062;28;20467;-81
2022/06/24 11:27:17;;;;;;;4.43;2.77;;;27.10;99.90;;;;;;5013054;28;20490;-81
2022/06/24 11:29:56;;;;;;;4.37;3.50;;;27.30;99.90;;;;;;5012652;28;20483;-82
2022/06/24 11:32:23;;;;;;;5.77;3.70;;;27.00;99.90;;;;;;5011744;28;20446;-81
2022/06/24 11:34:50;;;;;;;4.60;3.07;;;26.70;99.90;;;;;;5012658;28;20538;-82
2022/06/24 11:37:24;;;;;;;4.20;3.10;;;26.50;99.90;;;;;;5022744;28;20431;-82
2022/06/24 11:39:54;;;;;;;4.60;3.20;;;26.30;99.90;;;;;;5009220;28;20495;-81
2022/06/24 11:42:22;;;;;;;4.50;3.37;;;26.20;99.90;;;;;;5013710;28;20490;-83
2022/06/24 11:44:51;;;;;;;4.03;3.50;;;26.10;99.90;;;;;;5014586;28;20505;-80
2022/06/24 11:47:30;;;;;;;6.00;5.40;;;26.00;99.90;;;;;;5013309;28;20451;-80
2022/06/24 11:49:57;;;;;;;7.10;6.40;;;25.80;99.90;;;;;;5012218;28;20477;-81
2022/06/24 11:52:25;;;;;;;6.40;5.80;;;26.40;99.90;;;;;;5028301;28;20505;-79
2022/06/24 11:54:52;;;;;;;6.07;5.10;;;27.10;99.90;;;;;;5015390;28;20501;-81
2022/06/24 11:57:21;;;;;;;7.00;4.70;;;27.00;99.90;;;;;;5014946;28;20556;-82
2022/06/24 11:59:48;;;;;;;5.33;4.33;;;27.20;99.90;;;;;;5015774;28;20563;-82
2022/06/24 12:02:16;;;;;;;5.77;4.23;;;27.00;99.90;;;;;;5016343;28;20435;-82
2022/06/24 12:04:47;;;;;;;4.87;3.90;;;26.90;99.90;;;;;;5014129;28;20427;-82
2022/06/24 12:07:14;;;;;;;3.77;3.37;;;26.40;99.90;;;;;;4977965;28;1103431;-82
2022/06/24 12:09:43;;;;;;;6.00;4.03;;;26.30;99.90;;;;;;5016324;28;20446;-81
2022/06/24 12:12:11;;;;;;;6.23;3.50;;;26.20;99.90;;;;;;5015583;28;20450;-81
2022/06/24 12:14:38;;;;;;;4.33;3.77;;;26.30;99.90;;;;;;5016343;28;20492;-82
2022/06/24 12:17:07;;;;;;;5.13;4.10;;;26.50;99.90;;;;;;5018276;28;20426;-82
2022/06/24 12:19:37;;;;;;;4.17;3.53;;;26.80;99.90;;;;;;5015749;28;20434;-81
2022/06/24 12:22:07;;;;;;;3.93;3.53;;;27.30;99.90;;;;;;5015645;28;20538;-80
2022/06/24 12:24:34;;;;;;;7.00;4.50;;;27.60;99.90;;;;;;5016742;28;20447;-82
2022/06/24 12:27:04;;;;;;;3.93;3.53;;;27.50;99.90;;;;;;5017363;28;20438;-81
2022/06/24 12:29:33;;;;;;;4.40;4.00;;;27.40;99.90;;;;;;5016113;28;20477;-82
2022/06/24 12:32:01;;;;;;;4.90;4.40;;;27.30;99.90;;;;;;5017211;28;20453;-82
2022/06/24 12:34:32;;;;;;;5.30;4.10;;;27.10;99.90;;;;;;5016731;28;21080;-82
2022/06/24 12:37:00;;;;;;;4.63;4.13;;;27.00;99.90;;;;;;5017465;28;20435;-83
2022/06/24 12:39:29;;;;;;;4.50;4.10;;;26.90;99.90;;;;;;5016884;28;20451;-83
2022/06/24 12:41:59;;;;;;;5.90;4.60;;;26.70;99.90;;;;;;5014965;28;20485;-82
2022/06/24 12:44:42;;;;;;;5.13;4.50;;;26.60;99.90;;;;;;5016633;28;20431;-82
2022/06/24 12:52:57;;;;;;;6.03;5.00;;;26.80;99.90;;;;;;5009086;28;20457;-81
2022/06/24 12:55:24;;;;;;;5.90;5.13;;;26.70;99.90;;;;;;5004646;28;20481;-80
2022/06/24 12:57:51;;;;;;;6.03;5.43;;;26.70;99.90;;;;;;4996515;28;20477;-80
2022/06/24 13:00:20;;;;;;;5.60;4.90;;;26.60;99.90;;;;;;5012507;28;20457;-81
2022/06/24 13:02:48;;;;;;;4.47;3.57;;;26.70;99.90;;;;;;5008163;28;20454;-80
2022/06/24 13:05:15;;;;;;;3.87;3.10;;;26.70;99.90;;;;;;5006714;28;20473;-81
2022/06/24 13:07:42;;;;;;;4.60;3.30;;;26.70;99.90;;;;;;5006541;28;20459;-81
2022/06/24 13:10:11;;;;;;;4.00;3.30;;;26.80;99.90;;;;;;5004759;28;20450;-80
2022/06/24 13:12:42;;;;;;;4.20;2.87;;;26.50;99.90;;;;;;5006186;28;20458;-80
2022/06/24 13:15:13;;;;;;;4.00;2.53;;;26.60;99.90;;;;;;5006467;28;20466;-80
2022/06/24 13:17:42;;;;;;;3.00;2.40;;;26.60;99.90;;;;;;5005904;28;20494;-81